Terminal Aerodrome Forecast
Issued by NWS

Home | Current Version | Previous Version | Text Only | Print | Product List | Glossary On
Versions: 1 2 3 4 5 6 7 8 9 10 11 12 13 14 15 16 17 18 19 20
308
FTUS42 KTBW 180802 AAA
TAFLAL
TAF AMD
KLAL 180802Z 1808/1906 03009G14KT P6SM BKN020 OVC050
      TEMPO 1808/1812 BKN009
     FM181400 05010G15KT P6SM SCT025 BKN100
     FM181700 06013G20KT P6SM SCT040 BKN100
      AMD NOT SKED TIL 181100=

USA.gov is the U.S. government's official web portal to all federal, state and local government web resources and services.